Cartama, Spain
Current Conditions -  °F | °C
As of 10:30 PM on Saturday 22 Nov 2014 (Local Time) from LEMG Reporting Station
Clear Clear  
Wind Chill: 68°   Ceiling: Unl
Heat Index: 68°   Visibility: 4mi
Dew Point: 57°   Wind: 25mph
Humidity: 68%   Direction: 80°E
Pressure: 29.77"   Gusts: NA
Location:  36.71°N, 4.63°W
Report Text: LEMG 222130Z 08022KT 7000 NSC 20/14 Q1008 NOSIG
Loading
Personal Weather Stations






























Interactive Weather Map New forecast layout! Learn more

10-Day Weather Forecast

Advertisements
Track Severe Weather on mobile